sensor_id;sensor_type;location;lat;lon;timestamp;P1;durP1;ratioP1;P2;durP2;ratioP2
15712;SDS011;7957;51.608;6.916;2022-12-07T00:01:05;17.07;;;15.53;;
15712;SDS011;7957;51.608;6.916;2022-12-07T00:03:34;17.53;;;15.80;;
15712;SDS011;7957;51.608;6.916;2022-12-07T00:06:03;17.40;;;15.80;;
15712;SDS011;7957;51.608;6.916;2022-12-07T00:08:31;18.33;;;16.57;;
15712;SDS011;7957;51.608;6.916;2022-12-07T00:11:00;18.20;;;16.60;;
15712;SDS011;7957;51.608;6.916;2022-12-07T00:13:28;19.17;;;17.23;;
15712;SDS011;7957;51.608;6.916;2022-12-07T00:15:55;19.47;;;17.53;;
15712;SDS011;7957;51.608;6.916;2022-12-07T00:18:25;18.93;;;17.23;;
15712;SDS011;7957;51.608;6.916;2022-12-07T00:20:53;19.00;;;17.20;;
15712;SDS011;7957;51.608;6.916;2022-12-07T00:23:27;18.50;;;16.77;;
15712;SDS011;7957;51.608;6.916;2022-12-07T00:25:54;19.20;;;17.40;;
15712;SDS011;7957;51.608;6.916;2022-12-07T00:28:21;18.77;;;16.87;;
15712;SDS011;7957;51.608;6.916;2022-12-07T00:30:48;19.77;;;17.77;;
15712;SDS011;7957;51.608;6.916;2022-12-07T00:33:16;20.43;;;18.60;;
15712;SDS011;7957;51.608;6.916;2022-12-07T00:35:42;21.40;;;19.10;;
15712;SDS011;7957;51.608;6.916;2022-12-07T00:38:11;20.93;;;18.97;;
15712;SDS011;7957;51.608;6.916;2022-12-07T00:40:38;19.43;;;17.63;;
15712;SDS011;7957;51.608;6.916;2022-12-07T00:43:05;20.80;;;18.90;;
15712;SDS011;7957;51.608;6.916;2022-12-07T00:45:31;20.23;;;18.30;;
15712;SDS011;7957;51.608;6.916;2022-12-07T00:47:58;20.80;;;18.90;;
15712;SDS011;7957;51.608;6.916;2022-12-07T00:50:25;21.53;;;19.43;;
15712;SDS011;7957;51.608;6.916;2022-12-07T00:52:52;21.23;;;19.27;;
15712;SDS011;7957;51.608;6.916;2022-12-07T00:55:20;20.80;;;18.90;;
15712;SDS011;7957;51.608;6.916;2022-12-07T00:57:47;21.87;;;19.87;;
15712;SDS011;7957;51.608;6.916;2022-12-07T01:00:14;21.77;;;19.77;;
15712;SDS011;7957;51.608;6.916;2022-12-07T01:02:41;20.80;;;18.70;;
15712;SDS011;7957;51.608;6.916;2022-12-07T01:05:08;21.83;;;19.67;;
15712;SDS011;7957;51.608;6.916;2022-12-07T01:07:35;21.13;;;19.13;;
15712;SDS011;7957;51.608;6.916;2022-12-07T01:10:02;22.73;;;20.67;;
15712;SDS011;7957;51.608;6.916;2022-12-07T01:12:31;22.37;;;20.23;;
15712;SDS011;7957;51.608;6.916;2022-12-07T01:14:58;22.57;;;20.47;;
15712;SDS011;7957;51.608;6.916;2022-12-07T01:17:25;21.13;;;19.23;;
15712;SDS011;7957;51.608;6.916;2022-12-07T01:19:51;21.37;;;19.30;;
15712;SDS011;7957;51.608;6.916;2022-12-07T01:22:18;22.20;;;20.20;;
15712;SDS011;7957;51.608;6.916;2022-12-07T01:24:45;22.17;;;20.07;;
15712;SDS011;7957;51.608;6.916;2022-12-07T01:27:12;23.60;;;21.17;;
15712;SDS011;7957;51.608;6.916;2022-12-07T01:29:41;22.20;;;20.20;;
15712;SDS011;7957;51.608;6.916;2022-12-07T01:32:08;24.47;;;22.20;;
15712;SDS011;7957;51.608;6.916;2022-12-07T01:34:35;22.93;;;20.63;;
15712;SDS011;7957;51.608;6.916;2022-12-07T01:37:03;22.50;;;20.40;;
15712;SDS011;7957;51.608;6.916;2022-12-07T01:39:30;22.53;;;20.53;;
15712;SDS011;7957;51.608;6.916;2022-12-07T01:41:57;23.10;;;20.90;;
15712;SDS011;7957;51.608;6.916;2022-12-07T01:44:25;23.83;;;21.57;;
15712;SDS011;7957;51.608;6.916;2022-12-07T01:46:56;24.20;;;21.93;;
15712;SDS011;7957;51.608;6.916;2022-12-07T01:49:26;23.03;;;20.93;;
15712;SDS011;7957;51.608;6.916;2022-12-07T01:51:58;24.20;;;21.73;;
15712;SDS011;7957;51.608;6.916;2022-12-07T01:54:33;24.53;;;22.13;;
15712;SDS011;7957;51.608;6.916;2022-12-07T01:57:00;24.67;;;22.30;;
15712;SDS011;7957;51.608;6.916;2022-12-07T01:59:29;25.27;;;22.77;;
15712;SDS011;7957;51.608;6.916;2022-12-07T02:01:57;25.17;;;22.73;;
15712;SDS011;7957;51.608;6.916;2022-12-07T02:04:25;24.13;;;21.83;;
15712;SDS011;7957;51.608;6.916;2022-12-07T02:06:52;24.13;;;21.87;;
15712;SDS011;7957;51.608;6.916;2022-12-07T02:09:20;23.67;;;21.50;;
15712;SDS011;7957;51.608;6.916;2022-12-07T02:11:47;23.90;;;21.70;;
15712;SDS011;7957;51.608;6.916;2022-12-07T02:14:15;23.57;;;21.37;;
15712;SDS011;7957;51.608;6.916;2022-12-07T02:16:44;24.60;;;22.20;;
15712;SDS011;7957;51.608;6.916;2022-12-07T02:19:35;24.77;;;22.30;;
15712;SDS011;7957;51.608;6.916;2022-12-07T02:22:21;23.63;;;21.33;;
15712;SDS011;7957;51.608;6.916;2022-12-07T02:25:03;23.43;;;21.27;;
15712;SDS011;7957;51.608;6.916;2022-12-07T02:27:41;23.90;;;21.53;;
15712;SDS011;7957;51.608;6.916;2022-12-07T02:30:14;23.60;;;21.50;;
15712;SDS011;7957;51.608;6.916;2022-12-07T02:32:44;24.13;;;21.73;;
15712;SDS011;7957;51.608;6.916;2022-12-07T02:35:17;24.63;;;22.33;;
15712;SDS011;7957;51.608;6.916;2022-12-07T02:37:49;23.87;;;21.47;;
15712;SDS011;7957;51.608;6.916;2022-12-07T02:40:25;22.47;;;20.30;;
15712;SDS011;7957;51.608;6.916;2022-12-07T02:42:59;22.93;;;20.93;;
15712;SDS011;7957;51.608;6.916;2022-12-07T02:45:32;22.90;;;20.73;;
15712;SDS011;7957;51.608;6.916;2022-12-07T02:48:01;22.37;;;20.20;;
15712;SDS011;7957;51.608;6.916;2022-12-07T02:50:30;22.67;;;20.53;;
15712;SDS011;7957;51.608;6.916;2022-12-07T02:52:57;22.83;;;20.60;;
15712;SDS011;7957;51.608;6.916;2022-12-07T02:55:25;22.33;;;20.13;;
15712;SDS011;7957;51.608;6.916;2022-12-07T02:58:02;21.50;;;19.50;;
15712;SDS011;7957;51.608;6.916;2022-12-07T03:00:42;22.73;;;20.63;;
15712;SDS011;7957;51.608;6.916;2022-12-07T03:03:17;21.17;;;19.17;;
15712;SDS011;7957;51.608;6.916;2022-12-07T03:05:51;22.77;;;20.53;;
15712;SDS011;7957;51.608;6.916;2022-12-07T03:08:28;22.50;;;20.30;;
15712;SDS011;7957;51.608;6.916;2022-12-07T03:11:03;21.93;;;19.77;;
15712;SDS011;7957;51.608;6.916;2022-12-07T03:13:34;21.77;;;19.57;;
15712;SDS011;7957;51.608;6.916;2022-12-07T03:16:10;20.73;;;18.87;;
15712;SDS011;7957;51.608;6.916;2022-12-07T03:18:43;21.97;;;19.73;;
15712;SDS011;7957;51.608;6.916;2022-12-07T03:21:16;22.67;;;20.47;;
15712;SDS011;7957;51.608;6.916;2022-12-07T03:23:48;23.20;;;20.73;;
15712;SDS011;7957;51.608;6.916;2022-12-07T03:26:17;20.73;;;18.67;;
15712;SDS011;7957;51.608;6.916;2022-12-07T03:28:49;21.90;;;19.80;;
15712;SDS011;7957;51.608;6.916;2022-12-07T03:31:21;22.70;;;20.37;;
15712;SDS011;7957;51.608;6.916;2022-12-07T03:33:52;21.10;;;19.07;;
15712;SDS011;7957;51.608;6.916;2022-12-07T03:36:26;20.70;;;18.60;;
15712;SDS011;7957;51.608;6.916;2022-12-07T03:39:00;20.40;;;18.50;;
15712;SDS011;7957;51.608;6.916;2022-12-07T03:41:34;20.67;;;18.87;;
15712;SDS011;7957;51.608;6.916;2022-12-07T03:44:03;21.93;;;19.87;;
15712;SDS011;7957;51.608;6.916;2022-12-07T03:46:34;21.83;;;19.63;;
15712;SDS011;7957;51.608;6.916;2022-12-07T03:49:08;19.90;;;18.10;;
15712;SDS011;7957;51.608;6.916;2022-12-07T03:51:44;20.73;;;18.33;;
15712;SDS011;7957;51.608;6.916;2022-12-07T03:54:17;20.87;;;18.87;;
15712;SDS011;7957;51.608;6.916;2022-12-07T03:56:49;20.20;;;18.20;;
15712;SDS011;7957;51.608;6.916;2022-12-07T03:59:18;19.80;;;17.80;;
15712;SDS011;7957;51.608;6.916;2022-12-07T04:01:53;20.00;;;17.83;;
15712;SDS011;7957;51.608;6.916;2022-12-07T04:04:22;20.33;;;18.40;;
15712;SDS011;7957;51.608;6.916;2022-12-07T04:06:50;19.40;;;17.43;;
15712;SDS011;7957;51.608;6.916;2022-12-07T04:09:17;21.53;;;19.23;;
15712;SDS011;7957;51.608;6.916;2022-12-07T04:11:44;20.37;;;18.47;;
15712;SDS011;7957;51.608;6.916;2022-12-07T04:14:11;19.30;;;17.30;;
15712;SDS011;7957;51.608;6.916;2022-12-07T04:16:57;19.90;;;17.87;;
15712;SDS011;7957;51.608;6.916;2022-12-07T04:19:25;20.23;;;18.30;;
15712;SDS011;7957;51.608;6.916;2022-12-07T04:21:53;18.90;;;17.20;;
15712;SDS011;7957;51.608;6.916;2022-12-07T04:24:20;19.73;;;17.83;;
15712;SDS011;7957;51.608;6.916;2022-12-07T04:26:48;19.60;;;17.53;;
15712;SDS011;7957;51.608;6.916;2022-12-07T04:29:15;18.87;;;16.93;;
15712;SDS011;7957;51.608;6.916;2022-12-07T04:31:42;19.37;;;17.37;;
15712;SDS011;7957;51.608;6.916;2022-12-07T04:34:12;19.53;;;17.50;;
15712;SDS011;7957;51.608;6.916;2022-12-07T04:36:39;19.10;;;17.10;;
15712;SDS011;7957;51.608;6.916;2022-12-07T04:39:07;18.90;;;17.10;;
15712;SDS011;7957;51.608;6.916;2022-12-07T04:41:40;19.80;;;17.47;;
15712;SDS011;7957;51.608;6.916;2022-12-07T04:44:07;18.20;;;16.40;;
15712;SDS011;7957;51.608;6.916;2022-12-07T04:46:34;18.70;;;16.80;;
15712;SDS011;7957;51.608;6.916;2022-12-07T04:49:01;18.00;;;16.27;;
15712;SDS011;7957;51.608;6.916;2022-12-07T04:51:30;18.60;;;16.73;;
15712;SDS011;7957;51.608;6.916;2022-12-07T04:53:57;19.03;;;17.03;;
15712;SDS011;7957;51.608;6.916;2022-12-07T04:56:24;19.03;;;17.03;;
15712;SDS011;7957;51.608;6.916;2022-12-07T04:58:52;18.30;;;16.30;;
15712;SDS011;7957;51.608;6.916;2022-12-07T05:01:20;18.43;;;16.47;;
15712;SDS011;7957;51.608;6.916;2022-12-07T05:03:47;19.30;;;17.33;;
15712;SDS011;7957;51.608;6.916;2022-12-07T05:06:14;18.43;;;16.43;;
15712;SDS011;7957;51.608;6.916;2022-12-07T05:08:43;18.60;;;16.80;;
15712;SDS011;7957;51.608;6.916;2022-12-07T05:11:10;18.50;;;16.53;;
15712;SDS011;7957;51.608;6.916;2022-12-07T05:13:59;17.87;;;15.83;;
15712;SDS011;7957;51.608;6.916;2022-12-07T05:16:26;17.47;;;15.67;;
15712;SDS011;7957;51.608;6.916;2022-12-07T05:18:53;18.13;;;16.23;;
15712;SDS011;7957;51.608;6.916;2022-12-07T05:21:20;17.33;;;15.63;;
15712;SDS011;7957;51.608;6.916;2022-12-07T05:23:49;18.93;;;15.53;;
15712;SDS011;7957;51.608;6.916;2022-12-07T05:26:17;18.40;;;16.47;;
15712;SDS011;7957;51.608;6.916;2022-12-07T05:28:44;17.10;;;15.50;;
15712;SDS011;7957;51.608;6.916;2022-12-07T05:31:11;18.10;;;16.20;;
15712;SDS011;7957;51.608;6.916;2022-12-07T05:33:38;17.90;;;16.10;;
15712;SDS011;7957;51.608;6.916;2022-12-07T05:36:05;18.17;;;16.37;;
15712;SDS011;7957;51.608;6.916;2022-12-07T05:38:32;20.87;;;16.93;;
15712;SDS011;7957;51.608;6.916;2022-12-07T05:41:02;18.47;;;16.53;;
15712;SDS011;7957;51.608;6.916;2022-12-07T05:43:30;17.97;;;16.13;;
15712;SDS011;7957;51.608;6.916;2022-12-07T05:45:57;17.77;;;15.97;;
15712;SDS011;7957;51.608;6.916;2022-12-07T05:48:24;17.43;;;15.63;;
15712;SDS011;7957;51.608;6.916;2022-12-07T05:50:51;17.90;;;16.00;;
15712;SDS011;7957;51.608;6.916;2022-12-07T05:53:18;19.53;;;15.73;;
15712;SDS011;7957;51.608;6.916;2022-12-07T05:55:45;17.87;;;15.97;;
15712;SDS011;7957;51.608;6.916;2022-12-07T05:58:14;16.97;;;14.97;;
15712;SDS011;7957;51.608;6.916;2022-12-07T06:00:58;17.33;;;15.53;;
15712;SDS011;7957;51.608;6.916;2022-12-07T06:03:25;17.83;;;15.90;;
15712;SDS011;7957;51.608;6.916;2022-12-07T06:05:52;16.87;;;15.20;;
15712;SDS011;7957;51.608;6.916;2022-12-07T06:08:19;17.77;;;15.90;;
15712;SDS011;7957;51.608;6.916;2022-12-07T06:10:46;16.70;;;14.90;;
15712;SDS011;7957;51.608;6.916;2022-12-07T06:13:37;17.50;;;15.57;;
15712;SDS011;7957;51.608;6.916;2022-12-07T06:16:04;17.40;;;15.60;;
15712;SDS011;7957;51.608;6.916;2022-12-07T06:18:32;16.83;;;15.00;;
15712;SDS011;7957;51.608;6.916;2022-12-07T06:20:59;15.83;;;14.23;;
15712;SDS011;7957;51.608;6.916;2022-12-07T06:23:26;16.53;;;14.80;;
15712;SDS011;7957;51.608;6.916;2022-12-07T06:25:53;16.30;;;14.70;;
15712;SDS011;7957;51.608;6.916;2022-12-07T06:28:20;18.03;;;16.17;;
15712;SDS011;7957;51.608;6.916;2022-12-07T06:30:48;16.73;;;14.23;;
15712;SDS011;7957;51.608;6.916;2022-12-07T06:33:23;20.00;;;16.80;;
15712;SDS011;7957;51.608;6.916;2022-12-07T06:35:50;17.50;;;15.70;;
15712;SDS011;7957;51.608;6.916;2022-12-07T06:38:17;16.90;;;14.90;;
15712;SDS011;7957;51.608;6.916;2022-12-07T06:40:44;19.30;;;15.60;;
15712;SDS011;7957;51.608;6.916;2022-12-07T06:43:13;16.37;;;14.67;;
15712;SDS011;7957;51.608;6.916;2022-12-07T06:45:41;16.33;;;14.63;;
15712;SDS011;7957;51.608;6.916;2022-12-07T06:48:10;16.70;;;14.43;;
15712;SDS011;7957;51.608;6.916;2022-12-07T06:50:37;16.80;;;14.17;;
15712;SDS011;7957;51.608;6.916;2022-12-07T06:53:04;18.87;;;13.97;;
15712;SDS011;7957;51.608;6.916;2022-12-07T06:55:31;16.33;;;14.10;;
15712;SDS011;7957;51.608;6.916;2022-12-07T06:57:57;15.73;;;13.87;;
15712;SDS011;7957;51.608;6.916;2022-12-07T07:00:24;14.93;;;13.33;;
15712;SDS011;7957;51.608;6.916;2022-12-07T07:02:52;16.03;;;14.27;;
15712;SDS011;7957;51.608;6.916;2022-12-07T07:05:20;15.63;;;13.33;;
15712;SDS011;7957;51.608;6.916;2022-12-07T07:07:47;14.33;;;12.93;;
15712;SDS011;7957;51.608;6.916;2022-12-07T07:10:14;15.00;;;12.90;;
15712;SDS011;7957;51.608;6.916;2022-12-07T07:12:42;14.73;;;13.13;;
15712;SDS011;7957;51.608;6.916;2022-12-07T07:15:09;15.30;;;12.80;;
15712;SDS011;7957;51.608;6.916;2022-12-07T07:17:37;13.90;;;12.50;;
15712;SDS011;7957;51.608;6.916;2022-12-07T07:20:04;16.27;;;13.20;;
15712;SDS011;7957;51.608;6.916;2022-12-07T07:22:33;14.23;;;12.80;;
15712;SDS011;7957;51.608;6.916;2022-12-07T07:25:00;14.97;;;13.43;;
15712;SDS011;7957;51.608;6.916;2022-12-07T07:27:27;14.37;;;12.87;;
15712;SDS011;7957;51.608;6.916;2022-12-07T07:29:55;14.60;;;13.10;;
15712;SDS011;7957;51.608;6.916;2022-12-07T07:32:22;18.10;;;13.63;;
15712;SDS011;7957;51.608;6.916;2022-12-07T07:34:49;14.20;;;12.67;;
15712;SDS011;7957;51.608;6.916;2022-12-07T07:37:16;14.17;;;12.67;;
15712;SDS011;7957;51.608;6.916;2022-12-07T07:39:44;15.33;;;13.23;;
15712;SDS011;7957;51.608;6.916;2022-12-07T07:42:11;14.50;;;13.00;;
15712;SDS011;7957;51.608;6.916;2022-12-07T07:44:38;14.83;;;13.30;;
15712;SDS011;7957;51.608;6.916;2022-12-07T07:47:05;15.10;;;13.47;;
15712;SDS011;7957;51.608;6.916;2022-12-07T07:49:32;15.37;;;13.93;;
15712;SDS011;7957;51.608;6.916;2022-12-07T07:51:59;14.57;;;12.73;;
15712;SDS011;7957;51.608;6.916;2022-12-07T07:54:26;13.40;;;12.00;;
15712;SDS011;7957;51.608;6.916;2022-12-07T07:56:54;15.30;;;13.53;;
15712;SDS011;7957;51.608;6.916;2022-12-07T07:59:21;14.73;;;13.00;;
15712;SDS011;7957;51.608;6.916;2022-12-07T08:01:48;15.57;;;12.93;;
15712;SDS011;7957;51.608;6.916;2022-12-07T08:04:15;14.63;;;13.10;;
15712;SDS011;7957;51.608;6.916;2022-12-07T08:06:42;14.93;;;13.07;;
15712;SDS011;7957;51.608;6.916;2022-12-07T08:09:11;14.80;;;12.63;;
15712;SDS011;7957;51.608;6.916;2022-12-07T08:11:39;18.37;;;13.83;;
15712;SDS011;7957;51.608;6.916;2022-12-07T08:14:07;14.43;;;12.93;;
15712;SDS011;7957;51.608;6.916;2022-12-07T08:16:36;16.20;;;13.43;;
15712;SDS011;7957;51.608;6.916;2022-12-07T08:19:04;14.77;;;12.50;;
15712;SDS011;7957;51.608;6.916;2022-12-07T08:21:31;14.33;;;12.40;;
15712;SDS011;7957;51.608;6.916;2022-12-07T08:23:57;14.27;;;12.33;;
15712;SDS011;7957;51.608;6.916;2022-12-07T08:26:24;14.67;;;11.97;;
15712;SDS011;7957;51.608;6.916;2022-12-07T08:28:52;15.03;;;12.80;;
15712;SDS011;7957;51.608;6.916;2022-12-07T08:31:20;14.27;;;12.20;;
15712;SDS011;7957;51.608;6.916;2022-12-07T08:33:48;13.47;;;11.43;;
15712;SDS011;7957;51.608;6.916;2022-12-07T08:36:16;15.17;;;11.70;;
15712;SDS011;7957;51.608;6.916;2022-12-07T08:38:44;15.17;;;11.93;;
15712;SDS011;7957;51.608;6.916;2022-12-07T08:41:11;15.03;;;11.63;;
15712;SDS011;7957;51.608;6.916;2022-12-07T08:43:44;15.93;;;10.97;;
15712;SDS011;7957;51.608;6.916;2022-12-07T08:46:16;13.53;;;10.93;;
15712;SDS011;7957;51.608;6.916;2022-12-07T08:48:48;13.07;;;10.97;;
15712;SDS011;7957;51.608;6.916;2022-12-07T08:51:18;14.03;;;10.80;;
15712;SDS011;7957;51.608;6.916;2022-12-07T08:53:47;12.13;;;9.93;;
15712;SDS011;7957;51.608;6.916;2022-12-07T08:56:14;11.10;;;9.93;;
15712;SDS011;7957;51.608;6.916;2022-12-07T08:58:41;13.83;;;9.77;;
15712;SDS011;7957;51.608;6.916;2022-12-07T09:01:09;11.83;;;9.20;;
15712;SDS011;7957;51.608;6.916;2022-12-07T09:03:36;11.70;;;8.70;;
15712;SDS011;7957;51.608;6.916;2022-12-07T09:06:05;10.00;;;8.93;;
15712;SDS011;7957;51.608;6.916;2022-12-07T09:08:34;10.43;;;8.43;;
15712;SDS011;7957;51.608;6.916;2022-12-07T09:11:06;10.63;;;8.30;;
15712;SDS011;7957;51.608;6.916;2022-12-07T09:13:33;10.00;;;8.47;;
15712;SDS011;7957;51.608;6.916;2022-12-07T09:16:00;11.20;;;8.10;;
15712;SDS011;7957;51.608;6.916;2022-12-07T09:18:27;13.33;;;8.50;;
15712;SDS011;7957;51.608;6.916;2022-12-07T09:20:54;11.63;;;8.30;;
15712;SDS011;7957;51.608;6.916;2022-12-07T09:23:23;9.23;;;8.33;;
15712;SDS011;7957;51.608;6.916;2022-12-07T09:25:51;10.23;;;7.83;;
15712;SDS011;7957;51.608;6.916;2022-12-07T09:28:18;9.50;;;7.53;;
15712;SDS011;7957;51.608;6.916;2022-12-07T09:30:45;11.47;;;7.70;;
15712;SDS011;7957;51.608;6.916;2022-12-07T09:33:13;11.37;;;7.57;;
15712;SDS011;7957;51.608;6.916;2022-12-07T09:35:43;11.40;;;8.30;;
15712;SDS011;7957;51.608;6.916;2022-12-07T09:38:11;11.07;;;7.37;;
15712;SDS011;7957;51.608;6.916;2022-12-07T09:40:39;10.23;;;7.47;;
15712;SDS011;7957;51.608;6.916;2022-12-07T09:43:11;11.03;;;7.53;;
15712;SDS011;7957;51.608;6.916;2022-12-07T09:45:39;10.37;;;8.00;;
15712;SDS011;7957;51.608;6.916;2022-12-07T09:48:09;8.40;;;6.90;;
15712;SDS011;7957;51.608;6.916;2022-12-07T09:50:42;11.23;;;6.77;;
15712;SDS011;7957;51.608;6.916;2022-12-07T09:53:12;11.10;;;6.90;;
15712;SDS011;7957;51.608;6.916;2022-12-07T09:55:43;9.30;;;6.83;;
15712;SDS011;7957;51.608;6.916;2022-12-07T09:58:12;10.23;;;6.80;;
15712;SDS011;7957;51.608;6.916;2022-12-07T10:00:46;9.50;;;6.60;;
15712;SDS011;7957;51.608;6.916;2022-12-07T10:03:13;10.77;;;7.10;;
15712;SDS011;7957;51.608;6.916;2022-12-07T10:05:41;10.50;;;6.73;;
15712;SDS011;7957;51.608;6.916;2022-12-07T10:08:11;11.50;;;6.93;;
15712;SDS011;7957;51.608;6.916;2022-12-07T10:10:39;10.30;;;6.77;;
15712;SDS011;7957;51.608;6.916;2022-12-07T10:13:08;9.40;;;6.67;;
15712;SDS011;7957;51.608;6.916;2022-12-07T10:15:40;13.93;;;7.07;;
15712;SDS011;7957;51.608;6.916;2022-12-07T10:18:19;10.70;;;6.40;;
15712;SDS011;7957;51.608;6.916;2022-12-07T10:20:59;11.47;;;6.47;;
15712;SDS011;7957;51.608;6.916;2022-12-07T10:23:33;9.53;;;6.27;;
15712;SDS011;7957;51.608;6.916;2022-12-07T10:26:09;12.27;;;7.07;;
15712;SDS011;7957;51.608;6.916;2022-12-07T10:28:49;11.27;;;6.53;;
15712;SDS011;7957;51.608;6.916;2022-12-07T10:31:16;11.43;;;6.57;;
15712;SDS011;7957;51.608;6.916;2022-12-07T10:33:48;10.30;;;6.40;;
15712;SDS011;7957;51.608;6.916;2022-12-07T10:36:18;12.40;;;7.03;;
15712;SDS011;7957;51.608;6.916;2022-12-07T10:38:48;12.57;;;6.53;;
15712;SDS011;7957;51.608;6.916;2022-12-07T10:41:17;14.57;;;6.93;;
15712;SDS011;7957;51.608;6.916;2022-12-07T10:43:50;14.07;;;6.43;;
15712;SDS011;7957;51.608;6.916;2022-12-07T10:46:38;12.33;;;6.60;;
15712;SDS011;7957;51.608;6.916;2022-12-07T10:49:27;13.53;;;6.97;;
15712;SDS011;7957;51.608;6.916;2022-12-07T10:52:18;13.53;;;6.77;;
15712;SDS011;7957;51.608;6.916;2022-12-07T10:55:02;12.13;;;7.07;;
15712;SDS011;7957;51.608;6.916;2022-12-07T10:57:40;12.93;;;7.40;;
15712;SDS011;7957;51.608;6.916;2022-12-07T11:00:20;11.93;;;6.73;;
15712;SDS011;7957;51.608;6.916;2022-12-07T11:02:59;11.27;;;6.40;;
15712;SDS011;7957;51.608;6.916;2022-12-07T11:05:43;13.17;;;6.83;;
15712;SDS011;7957;51.608;6.916;2022-12-07T11:08:17;9.93;;;6.20;;
15712;SDS011;7957;51.608;6.916;2022-12-07T11:10:56;10.67;;;6.40;;
15712;SDS011;7957;51.608;6.916;2022-12-07T11:13:29;9.27;;;7.20;;
15712;SDS011;7957;51.608;6.916;2022-12-07T11:16:07;58.53;;;27.57;;
15712;SDS011;7957;51.608;6.916;2022-12-07T11:18:44;13.33;;;8.07;;
15712;SDS011;7957;51.608;6.916;2022-12-07T11:21:23;16.20;;;9.17;;
15712;SDS011;7957;51.608;6.916;2022-12-07T11:23:56;17.20;;;9.37;;
15712;SDS011;7957;51.608;6.916;2022-12-07T11:26:35;12.90;;;8.10;;
15712;SDS011;7957;51.608;6.916;2022-12-07T11:29:17;13.60;;;7.87;;
15712;SDS011;7957;51.608;6.916;2022-12-07T11:31:58;11.67;;;7.30;;
15712;SDS011;7957;51.608;6.916;2022-12-07T11:34:36;10.63;;;7.13;;
15712;SDS011;7957;51.608;6.916;2022-12-07T11:37:09;11.77;;;6.57;;
15712;SDS011;7957;51.608;6.916;2022-12-07T11:39:41;14.73;;;6.40;;
15712;SDS011;7957;51.608;6.916;2022-12-07T11:42:14;9.27;;;6.17;;
15712;SDS011;7957;51.608;6.916;2022-12-07T11:44:49;10.50;;;6.13;;
15712;SDS011;7957;51.608;6.916;2022-12-07T11:47:22;10.87;;;5.90;;
15712;SDS011;7957;51.608;6.916;2022-12-07T11:49:54;13.37;;;5.30;;
15712;SDS011;7957;51.608;6.916;2022-12-07T11:52:32;11.60;;;5.93;;
15712;SDS011;7957;51.608;6.916;2022-12-07T11:55:14;10.60;;;5.30;;
15712;SDS011;7957;51.608;6.916;2022-12-07T11:57:48;10.07;;;5.57;;
15712;SDS011;7957;51.608;6.916;2022-12-07T12:00:19;10.10;;;4.90;;
15712;SDS011;7957;51.608;6.916;2022-12-07T12:02:50;9.47;;;4.97;;
15712;SDS011;7957;51.608;6.916;2022-12-07T12:05:21;9.20;;;4.33;;
15712;SDS011;7957;51.608;6.916;2022-12-07T12:07:51;11.63;;;4.90;;
15712;SDS011;7957;51.608;6.916;2022-12-07T12:10:27;9.87;;;4.83;;
15712;SDS011;7957;51.608;6.916;2022-12-07T12:13:19;6.77;;;4.40;;
15712;SDS011;7957;51.608;6.916;2022-12-07T12:15:59;10.50;;;5.20;;
15712;SDS011;7957;51.608;6.916;2022-12-07T12:18:48;10.43;;;4.83;;
15712;SDS011;7957;51.608;6.916;2022-12-07T12:21:26;9.33;;;4.80;;
15712;SDS011;7957;51.608;6.916;2022-12-07T12:23:56;10.03;;;4.47;;
15712;SDS011;7957;51.608;6.916;2022-12-07T12:26:27;9.47;;;5.10;;
15712;SDS011;7957;51.608;6.916;2022-12-07T12:28:56;8.53;;;4.57;;
15712;SDS011;7957;51.608;6.916;2022-12-07T12:31:31;10.87;;;4.57;;
15712;SDS011;7957;51.608;6.916;2022-12-07T12:36:57;9.53;;;4.37;;
15712;SDS011;7957;51.608;6.916;2022-12-07T12:39:24;8.77;;;4.40;;
15712;SDS011;7957;51.608;6.916;2022-12-07T12:44:40;6.73;;;4.13;;
15712;SDS011;7957;51.608;6.916;2022-12-07T12:47:51;10.47;;;4.73;;
15712;SDS011;7957;51.608;6.916;2022-12-07T12:50:27;12.17;;;4.13;;
15712;SDS011;7957;51.608;6.916;2022-12-07T12:53:03;9.77;;;4.20;;
15712;SDS011;7957;51.608;6.916;2022-12-07T12:58:50;11.27;;;4.63;;
15712;SDS011;7957;51.608;6.916;2022-12-07T13:01:56;8.50;;;4.77;;
15712;SDS011;7957;51.608;6.916;2022-12-07T13:04:48;11.33;;;4.97;;
15712;SDS011;7957;51.608;6.916;2022-12-07T13:10:21;8.93;;;4.67;;
15712;SDS011;7957;51.608;6.916;2022-12-07T13:13:04;12.13;;;4.60;;
15712;SDS011;7957;51.608;6.916;2022-12-07T13:15:54;6.80;;;4.27;;
15712;SDS011;7957;51.608;6.916;2022-12-07T13:18:59;8.53;;;4.90;;
15712;SDS011;7957;51.608;6.916;2022-12-07T13:21:41;8.90;;;4.47;;
15712;SDS011;7957;51.608;6.916;2022-12-07T13:24:10;8.57;;;4.80;;
15712;SDS011;7957;51.608;6.916;2022-12-07T13:26:41;7.40;;;4.27;;
15712;SDS011;7957;51.608;6.916;2022-12-07T13:29:10;7.20;;;4.37;;
15712;SDS011;7957;51.608;6.916;2022-12-07T13:31:39;9.17;;;3.93;;
15712;SDS011;7957;51.608;6.916;2022-12-07T13:36:57;8.37;;;4.37;;
15712;SDS011;7957;51.608;6.916;2022-12-07T13:39:26;7.37;;;4.10;;
15712;SDS011;7957;51.608;6.916;2022-12-07T13:41:54;6.37;;;4.20;;
15712;SDS011;7957;51.608;6.916;2022-12-07T13:44:23;6.70;;;4.50;;
15712;SDS011;7957;51.608;6.916;2022-12-07T13:46:53;6.80;;;4.03;;
15712;SDS011;7957;51.608;6.916;2022-12-07T13:49:26;10.27;;;4.40;;
15712;SDS011;7957;51.608;6.916;2022-12-07T13:51:54;6.23;;;4.00;;
15712;SDS011;7957;51.608;6.916;2022-12-07T13:54:44;8.17;;;4.20;;
15712;SDS011;7957;51.608;6.916;2022-12-07T13:57:12;6.73;;;3.73;;
15712;SDS011;7957;51.608;6.916;2022-12-07T13:59:39;6.07;;;4.10;;
15712;SDS011;7957;51.608;6.916;2022-12-07T14:02:16;5.57;;;3.73;;
15712;SDS011;7957;51.608;6.916;2022-12-07T14:04:45;8.03;;;4.30;;
15712;SDS011;7957;51.608;6.916;2022-12-07T14:07:19;8.90;;;4.30;;
15712;SDS011;7957;51.608;6.916;2022-12-07T14:09:57;8.83;;;4.37;;
15712;SDS011;7957;51.608;6.916;2022-12-07T14:12:26;9.57;;;4.53;;
15712;SDS011;7957;51.608;6.916;2022-12-07T14:14:54;7.57;;;4.10;;
15712;SDS011;7957;51.608;6.916;2022-12-07T14:17:23;6.23;;;4.17;;
15712;SDS011;7957;51.608;6.916;2022-12-07T14:19:51;9.83;;;4.43;;
15712;SDS011;7957;51.608;6.916;2022-12-07T14:22:22;7.50;;;4.50;;
15712;SDS011;7957;51.608;6.916;2022-12-07T14:24:57;5.90;;;4.17;;
15712;SDS011;7957;51.608;6.916;2022-12-07T14:27:30;6.33;;;4.10;;
15712;SDS011;7957;51.608;6.916;2022-12-07T14:30:00;7.70;;;4.57;;
15712;SDS011;7957;51.608;6.916;2022-12-07T14:32:27;6.37;;;4.33;;
15712;SDS011;7957;51.608;6.916;2022-12-07T14:34:56;5.70;;;3.70;;
15712;SDS011;7957;51.608;6.916;2022-12-07T14:37:25;5.30;;;3.87;;
15712;SDS011;7957;51.608;6.916;2022-12-07T14:39:52;7.40;;;4.00;;
15712;SDS011;7957;51.608;6.916;2022-12-07T14:42:20;6.50;;;4.40;;
15712;SDS011;7957;51.608;6.916;2022-12-07T14:44:50;5.70;;;4.17;;
15712;SDS011;7957;51.608;6.916;2022-12-07T14:47:17;8.87;;;4.70;;
15712;SDS011;7957;51.608;6.916;2022-12-07T14:49:43;5.97;;;4.17;;
15712;SDS011;7957;51.608;6.916;2022-12-07T14:52:13;7.77;;;4.17;;
15712;SDS011;7957;51.608;6.916;2022-12-07T14:54:43;6.43;;;4.27;;
15712;SDS011;7957;51.608;6.916;2022-12-07T14:57:10;7.67;;;4.33;;
15712;SDS011;7957;51.608;6.916;2022-12-07T14:59:39;6.97;;;3.73;;
15712;SDS011;7957;51.608;6.916;2022-12-07T15:02:06;8.47;;;4.43;;
15712;SDS011;7957;51.608;6.916;2022-12-07T15:04:35;5.33;;;3.93;;
15712;SDS011;7957;51.608;6.916;2022-12-07T15:07:03;6.37;;;4.20;;
15712;SDS011;7957;51.608;6.916;2022-12-07T15:09:31;6.13;;;4.10;;
15712;SDS011;7957;51.608;6.916;2022-12-07T15:11:58;7.70;;;4.57;;
15712;SDS011;7957;51.608;6.916;2022-12-07T15:14:25;8.70;;;4.40;;
15712;SDS011;7957;51.608;6.916;2022-12-07T15:16:54;6.17;;;4.40;;
15712;SDS011;7957;51.608;6.916;2022-12-07T15:19:22;8.30;;;4.90;;